createdAt,value
2018-03-09T00:00:45.545Z,995.66
2018-03-09T00:02:00.049Z,995.62
2018-03-09T00:03:15.218Z,995.64
2018-03-09T00:04:30.050Z,995.69
2018-03-09T00:05:45.221Z,995.64
2018-03-09T00:06:59.636Z,995.67
2018-03-09T00:08:14.526Z,995.65
2018-03-09T00:09:29.407Z,995.67
2018-03-09T00:10:44.311Z,995.63
2018-03-09T00:12:00.177Z,995.66
2018-03-09T00:13:15.642Z,995.66
2018-03-09T00:14:30.331Z,995.65
2018-03-09T00:15:45.218Z,995.63
2018-03-09T00:17:00.580Z,995.61
2018-03-09T00:18:15.417Z,995.65
2018-03-09T00:19:30.190Z,995.7
2018-03-09T00:20:45.656Z,995.67
2018-03-09T00:22:01.022Z,995.75
2018-03-09T00:23:16.259Z,995.71
2018-03-09T00:24:30.610Z,995.73
2018-03-09T00:25:45.687Z,995.75
2018-03-09T00:27:00.673Z,995.78
2018-03-09T00:28:15.509Z,995.74
2018-03-09T00:29:30.421Z,995.78
2018-03-09T00:30:45.304Z,995.8
2018-03-09T00:32:00.226Z,995.82
2018-03-09T00:33:15.075Z,995.88
2018-03-09T00:34:29.722Z,995.88
2018-03-09T00:35:44.713Z,995.87
2018-03-09T00:37:28.681Z,995.82
2018-03-09T00:38:43.266Z,995.93
2018-03-09T00:39:57.895Z,995.93
2018-03-09T00:41:13.105Z,995.97
2018-03-09T00:42:28.385Z,995.96
2018-03-09T00:43:43.471Z,996.06
2018-03-09T00:44:57.846Z,995.97
2018-03-09T00:46:12.530Z,996
2018-03-09T00:47:26.868Z,996
2018-03-09T00:48:40.916Z,995.98
2018-03-09T00:49:56.510Z,996.02
2018-03-09T00:51:11.138Z,995.97
2018-03-09T00:52:26.274Z,996
2018-03-09T00:53:40.327Z,995.99
2018-03-09T00:54:54.912Z,995.97
2018-03-09T00:56:10.067Z,995.94
2018-03-09T00:57:25.286Z,995.98
2018-03-09T00:58:39.825Z,995.98
2018-03-09T00:59:54.664Z,995.97
2018-03-09T01:01:09.381Z,995.97
2018-03-09T01:02:23.971Z,995.95
2018-03-09T01:03:39.114Z,995.98
2018-03-09T01:04:53.981Z,995.92
2018-03-09T01:06:08.365Z,995.92
2018-03-09T01:07:22.528Z,995.93
2018-03-09T01:08:37.267Z,995.94
2018-03-09T01:09:52.199Z,995.88
2018-03-09T01:11:07.469Z,995.92
2018-03-09T01:12:22.696Z,995.91
2018-03-09T01:13:37.899Z,995.93
2018-03-09T01:14:53.339Z,995.93
2018-03-09T01:16:08.241Z,995.92
2018-03-09T01:17:23.256Z,995.9
2018-03-09T01:18:38.636Z,995.91
2018-03-09T01:19:53.517Z,995.91
2018-03-09T01:21:08.403Z,995.89
2018-03-09T01:22:23.004Z,995.94
2018-03-09T01:23:37.472Z,995.88
2018-03-09T01:24:52.060Z,995.92
2018-03-09T01:26:06.974Z,995.96
2018-03-09T01:27:22.398Z,995.93
2018-03-09T01:28:37.082Z,995.94
2018-03-09T01:29:51.653Z,995.96
2018-03-09T01:31:06.204Z,995.97
2018-03-09T01:32:20.672Z,995.99
2018-03-09T01:33:35.018Z,996.04
2018-03-09T01:34:49.603Z,996.07
2018-03-09T01:36:04.297Z,996.04
2018-03-09T01:37:19.307Z,996.04
2018-03-09T01:38:33.798Z,996.08
2018-03-09T01:39:48.452Z,996.07
2018-03-09T01:41:02.479Z,996.06
2018-03-09T01:42:17.485Z,996.03
2018-03-09T01:43:32.656Z,996.08
2018-03-09T01:44:47.362Z,996.05
2018-03-09T01:46:02.475Z,996.08
2018-03-09T01:47:17.617Z,996.08
2018-03-09T01:48:32.735Z,996.1
2018-03-09T01:49:48.145Z,996.16
2018-03-09T01:51:02.914Z,996.13
2018-03-09T01:52:18.385Z,996.16
2018-03-09T01:53:33.248Z,996.11
2018-03-09T01:54:48.097Z,996.12
2018-03-09T01:56:03.226Z,996.14
2018-03-09T01:57:18.035Z,996.2
2018-03-09T01:58:33.035Z,996.23
2018-03-09T01:59:47.655Z,996.22
2018-03-09T02:01:02.252Z,996.31
2018-03-09T02:02:16.840Z,996.31
2018-03-09T02:03:31.594Z,996.34
2018-03-09T02:04:47.056Z,996.35
2018-03-09T02:06:01.987Z,996.26
2018-03-09T02:07:16.294Z,996.27
2018-03-09T02:08:30.998Z,996.28
2018-03-09T02:09:46.390Z,996.25
2018-03-09T02:11:00.987Z,996.33
2018-03-09T02:12:15.427Z,996.33
2018-03-09T02:13:30.424Z,996.33
2018-03-09T02:14:45.056Z,996.37
2018-03-09T02:15:59.597Z,996.33
2018-03-09T02:17:14.510Z,996.35
2018-03-09T02:18:44.048Z,996.33
2018-03-09T02:19:59.009Z,996.32
2018-03-09T02:21:14.018Z,996.27
2018-03-09T02:22:28.917Z,996.29
2018-03-09T02:23:43.289Z,996.33
2018-03-09T02:24:57.873Z,996.3
2018-03-09T02:26:12.825Z,996.25
2018-03-09T02:27:27.617Z,996.3
2018-03-09T02:28:43.086Z,996.31
2018-03-09T02:29:57.675Z,996.3
2018-03-09T02:31:11.696Z,996.29
2018-03-09T02:32:26.081Z,996.27
2018-03-09T02:33:40.417Z,996.32
2018-03-09T02:34:55.859Z,996.39
2018-03-09T02:36:10.423Z,996.36
2018-03-09T02:37:25.286Z,996.33
2018-03-09T02:38:39.697Z,996.37
2018-03-09T02:39:54.011Z,996.38
2018-03-09T02:41:09.095Z,996.4
2018-03-09T02:42:23.682Z,996.34
2018-03-09T02:43:38.847Z,996.31
2018-03-09T02:44:54.140Z,996.33
2018-03-09T02:46:08.496Z,996.29
2018-03-09T02:47:23.609Z,996.28
2018-03-09T02:48:38.889Z,996.32
2018-03-09T02:49:53.215Z,996.34
2018-03-09T02:51:08.098Z,996.36
2018-03-09T02:52:22.775Z,996.41
2018-03-09T02:53:38.153Z,996.4
2018-03-09T02:54:53.688Z,996.49
2018-03-09T02:56:08.234Z,996.39
2018-03-09T02:57:22.825Z,996.42
2018-03-09T02:58:37.786Z,996.47
2018-03-09T02:59:52.260Z,996.45
2018-03-09T03:01:07.163Z,996.49
2018-03-09T03:02:22.219Z,996.45
2018-03-09T03:03:37.682Z,996.48
2018-03-09T03:04:52.391Z,996.51
2018-03-09T03:06:07.436Z,996.53
2018-03-09T03:07:21.992Z,996.54
2018-03-09T03:08:36.865Z,996.51
2018-03-09T03:09:52.000Z,996.5
2018-03-09T03:11:06.285Z,996.54
2018-03-09T03:12:20.998Z,996.54
2018-03-09T03:13:35.840Z,996.49
2018-03-09T03:14:50.998Z,996.53
2018-03-09T03:16:05.880Z,996.52
2018-03-09T03:17:20.181Z,996.53
2018-03-09T03:18:35.591Z,996.52
2018-03-09T03:19:50.189Z,996.63
2018-03-09T03:21:05.222Z,996.64
2018-03-09T03:22:19.770Z,996.66
2018-03-09T03:23:34.738Z,996.71
2018-03-09T03:24:49.842Z,996.74
2018-03-09T03:26:04.754Z,996.72
2018-03-09T03:27:19.580Z,996.8
2018-03-09T03:28:34.136Z,996.8
2018-03-09T03:29:49.384Z,996.83
2018-03-09T03:31:04.915Z,996.86
2018-03-09T03:32:19.913Z,996.89
2018-03-09T03:33:34.514Z,996.89
2018-03-09T03:34:49.482Z,996.93
2018-03-09T03:36:04.035Z,996.95
2018-03-09T03:37:19.719Z,997
2018-03-09T03:38:34.832Z,996.98
2018-03-09T03:39:49.967Z,997.01
2018-03-09T03:41:04.116Z,997.02
2018-03-09T03:42:19.545Z,996.99
2018-03-09T03:43:34.128Z,996.97
2018-03-09T03:44:48.877Z,997
2018-03-09T03:46:03.177Z,997.02
2018-03-09T03:47:18.405Z,997.07
2018-03-09T03:48:33.006Z,997.07
2018-03-09T03:49:48.235Z,997.04
2018-03-09T03:51:02.840Z,997.09
2018-03-09T03:52:52.059Z,997.1
2018-03-09T03:54:06.947Z,997.14
2018-03-09T03:55:21.691Z,997.11
2018-03-09T03:56:36.531Z,997.07
2018-03-09T03:57:51.423Z,997.07
2018-03-09T03:59:06.315Z,997.09
2018-03-09T04:00:20.622Z,997.1
2018-03-09T04:01:35.214Z,997.12
2018-03-09T04:02:50.085Z,997.12
2018-03-09T04:04:04.123Z,997.12
2018-03-09T04:05:19.335Z,997.15
2018-03-09T04:06:34.773Z,997.06
2018-03-09T04:07:49.686Z,997.07
2018-03-09T04:09:04.350Z,997.08
2018-03-09T04:10:19.267Z,997.13
2018-03-09T04:11:33.572Z,997.11
2018-03-09T04:12:48.510Z,997.07
2018-03-09T04:14:03.354Z,997.08
2018-03-09T04:15:18.953Z,997.06
2018-03-09T04:16:33.498Z,997.07
2018-03-09T04:17:48.660Z,997.07
2018-03-09T04:19:02.975Z,997.06
2018-03-09T04:20:17.871Z,996.99
2018-03-09T04:21:33.290Z,997.01
2018-03-09T04:22:47.604Z,997.03
2018-03-09T04:24:02.156Z,997.05
2018-03-09T04:25:17.070Z,997.01
2018-03-09T04:26:31.764Z,997.05
2018-03-09T04:27:46.067Z,997.04
2018-03-09T04:29:00.560Z,997.09
2018-03-09T04:30:15.891Z,997.1
2018-03-09T04:31:30.714Z,997.12
2018-03-09T04:32:50.135Z,997.1
2018-03-09T04:34:05.027Z,997.12
2018-03-09T04:35:20.059Z,997.14
2018-03-09T04:36:34.906Z,997.22
2018-03-09T04:37:49.938Z,997.19
2018-03-09T04:39:04.839Z,997.22
2018-03-09T04:40:19.727Z,997.23
2018-03-09T04:41:34.237Z,997.22
2018-03-09T04:42:49.481Z,997.24
2018-03-09T04:44:03.850Z,997.27
2018-03-09T04:45:18.806Z,997.22
2018-03-09T04:46:33.663Z,997.28
2018-03-09T04:47:48.343Z,997.27
2018-03-09T04:49:03.407Z,997.29
2018-03-09T04:50:18.813Z,997.29
2018-03-09T04:51:33.136Z,997.27
2018-03-09T04:52:47.476Z,997.28
2018-03-09T04:54:02.056Z,997.27
2018-03-09T04:55:16.852Z,997.28
2018-03-09T04:56:31.720Z,997.28
2018-03-09T04:57:46.854Z,997.31
2018-03-09T04:59:01.554Z,997.24
2018-03-09T05:00:16.690Z,997.28
2018-03-09T05:01:31.802Z,997.28
2018-03-09T05:02:47.269Z,997.36
2018-03-09T05:04:01.950Z,997.36
2018-03-09T05:05:17.344Z,997.38
2018-03-09T05:06:31.382Z,997.35
2018-03-09T05:07:46.638Z,997.38
2018-03-09T05:09:01.617Z,997.41
2018-03-09T05:10:16.418Z,997.47
2018-03-09T05:11:30.991Z,997.43
2018-03-09T05:12:45.635Z,997.45
2018-03-09T05:14:00.510Z,997.48
2018-03-09T05:15:15.935Z,997.46
2018-03-09T05:16:31.247Z,997.52
2018-03-09T05:17:46.416Z,997.48
2018-03-09T05:19:00.492Z,997.48
2018-03-09T05:20:15.388Z,997.49
2018-03-09T05:21:30.629Z,997.52
2018-03-09T05:22:45.246Z,997.53
2018-03-09T05:24:00.660Z,997.58
2018-03-09T05:25:15.537Z,997.55
2018-03-09T05:26:31.161Z,997.57
2018-03-09T05:27:46.055Z,997.58
2018-03-09T05:29:00.748Z,997.58
2018-03-09T05:30:15.917Z,997.55
2018-03-09T05:31:30.252Z,997.55
2018-03-09T05:32:44.845Z,997.53
2018-03-09T05:33:58.865Z,997.49
2018-03-09T05:35:13.875Z,997.45
2018-03-09T05:36:28.552Z,997.42
2018-03-09T05:37:43.416Z,997.38
2018-03-09T05:38:58.540Z,997.42
2018-03-09T05:40:12.936Z,997.41
2018-03-09T05:41:28.776Z,997.34
2018-03-09T05:42:44.190Z,997.4
2018-03-09T05:43:58.868Z,997.39
2018-03-09T05:45:14.230Z,997.29
2018-03-09T05:46:30.327Z,997.26
2018-03-09T05:47:45.165Z,997.33
2018-03-09T05:49:00.040Z,997.21
2018-03-09T05:50:15.107Z,997.35
2018-03-09T05:51:30.275Z,997.41
2018-03-09T05:52:44.618Z,997.39
2018-03-09T05:53:59.298Z,997.41
2018-03-09T05:55:14.175Z,997.41
2018-03-09T05:56:28.926Z,997.45
2018-03-09T05:57:43.147Z,997.47
2018-03-09T05:58:57.762Z,997.49
2018-03-09T06:00:12.567Z,997.57
2018-03-09T06:01:27.171Z,997.71
2018-03-09T06:02:53.187Z,997.67
2018-03-09T06:04:07.209Z,997.66
2018-03-09T06:05:21.919Z,997.65
2018-03-09T06:06:36.965Z,997.63
2018-03-09T06:07:51.303Z,997.63
2018-03-09T06:09:06.049Z,997.7
2018-03-09T06:10:21.420Z,997.69
2018-03-09T06:11:35.714Z,997.63
2018-03-09T06:12:51.283Z,997.6
2018-03-09T06:14:05.933Z,997.64
2018-03-09T06:15:21.123Z,997.78
2018-03-09T06:16:36.045Z,997.71
2018-03-09T06:17:50.784Z,997.68
2018-03-09T06:19:05.378Z,997.74
2018-03-09T06:20:27.126Z,997.87
2018-03-09T06:21:41.967Z,997.82
2018-03-09T06:22:56.323Z,997.82
2018-03-09T06:24:10.965Z,997.82
2018-03-09T06:25:26.143Z,997.88
2018-03-09T06:26:41.432Z,997.74
2018-03-09T06:27:55.302Z,997.7
2018-03-09T06:29:10.467Z,997.79
2018-03-09T06:30:25.620Z,997.77
2018-03-09T06:31:39.695Z,997.69
2018-03-09T06:32:55.436Z,997.69
2018-03-09T06:34:10.123Z,997.71
2018-03-09T06:35:25.060Z,997.76
2018-03-09T06:36:39.948Z,997.8
2018-03-09T06:37:55.332Z,997.87
2018-03-09T06:39:10.196Z,997.88
2018-03-09T06:40:25.297Z,997.81
2018-03-09T06:41:40.146Z,997.68
2018-03-09T06:42:54.973Z,997.58
2018-03-09T06:44:09.311Z,997.57
2018-03-09T06:45:24.456Z,997.57
2018-03-09T06:46:39.678Z,997.61
2018-03-09T06:47:54.650Z,997.55
2018-03-09T06:49:09.007Z,997.54
2018-03-09T06:50:24.165Z,997.52
2018-03-09T06:51:39.352Z,997.57
2018-03-09T06:52:54.682Z,997.61
2018-03-09T06:54:09.801Z,997.61
2018-03-09T06:55:24.515Z,997.67
2018-03-09T06:56:39.142Z,997.59
2018-03-09T06:57:53.438Z,997.62
2018-03-09T06:59:08.310Z,997.6
2018-03-09T07:00:26.236Z,997.64
2018-03-09T07:01:40.994Z,997.64
2018-03-09T07:02:56.439Z,997.63
2018-03-09T07:04:11.054Z,997.61
2018-03-09T07:05:26.097Z,997.63
2018-03-09T07:06:41.549Z,997.58
2018-03-09T07:08:06.907Z,997.46
2018-03-09T07:09:21.535Z,997.53
2018-03-09T07:10:36.449Z,997.52
2018-03-09T07:11:51.143Z,997.58
2018-03-09T07:13:06.021Z,997.5
2018-03-09T07:14:20.627Z,997.52
2018-03-09T07:15:35.520Z,997.49
2018-03-09T07:16:49.554Z,997.41
2018-03-09T07:18:04.035Z,997.41
2018-03-09T07:19:19.069Z,997.43
2018-03-09T07:20:33.990Z,997.43
2018-03-09T07:21:48.686Z,997.39
2018-03-09T07:23:03.552Z,997.45
2018-03-09T07:24:18.802Z,997.43
2018-03-09T07:25:33.399Z,997.43
2018-03-09T07:26:47.756Z,997.45
2018-03-09T07:28:03.232Z,997.45
2018-03-09T07:29:17.285Z,997.51
2018-03-09T07:30:32.205Z,997.49
2018-03-09T07:31:47.105Z,997.47
2018-03-09T07:33:02.267Z,997.48
2018-03-09T07:34:16.648Z,997.42
2018-03-09T07:35:30.997Z,997.37
2018-03-09T07:36:45.862Z,997.39
2018-03-09T07:38:01.002Z,997.45
2018-03-09T07:39:16.763Z,997.44
2018-03-09T07:40:43.920Z,997.41
2018-03-09T07:41:58.218Z,997.49
2018-03-09T07:43:13.152Z,997.52
2018-03-09T07:44:27.911Z,997.52
2018-03-09T07:45:42.495Z,997.49
2018-03-09T07:46:57.781Z,997.51
2018-03-09T07:48:12.287Z,997.58
2018-03-09T07:49:27.162Z,997.65
2018-03-09T07:50:42.259Z,997.62
2018-03-09T07:51:57.068Z,997.69
2018-03-09T07:53:12.018Z,997.69
2018-03-09T07:54:27.465Z,997.69
2018-03-09T07:55:41.806Z,997.69
2018-03-09T07:56:56.071Z,997.64
2018-03-09T07:58:11.298Z,997.62
2018-03-09T07:59:26.192Z,997.61
2018-03-09T08:00:42.219Z,997.57
2018-03-09T08:01:56.886Z,997.55
2018-03-09T08:03:12.127Z,997.57
2018-03-09T08:04:27.063Z,997.57
2018-03-09T08:05:41.956Z,997.56
2018-03-09T08:06:57.197Z,997.65
2018-03-09T08:08:11.807Z,997.7
2018-03-09T08:09:26.954Z,997.67
2018-03-09T08:10:41.826Z,997.73
2018-03-09T08:11:57.340Z,997.77
2018-03-09T08:13:25.266Z,997.77
2018-03-09T08:14:39.920Z,997.77
2018-03-09T08:15:54.831Z,997.87
2018-03-09T08:17:09.908Z,997.89
2018-03-09T08:18:24.587Z,997.92
2018-03-09T08:19:39.964Z,997.9
2018-03-09T08:20:55.186Z,997.98
2018-03-09T08:22:09.996Z,998.05
2018-03-09T08:23:24.373Z,998.03
2018-03-09T08:24:39.789Z,998.03
2018-03-09T08:25:54.695Z,998.03
2018-03-09T08:27:10.130Z,998.04
2018-03-09T08:28:24.476Z,998.06
2018-03-09T08:29:39.396Z,998.05
2018-03-09T08:30:54.606Z,998.03
2018-03-09T08:32:09.559Z,998.02
2018-03-09T08:33:25.085Z,997.96
2018-03-09T08:34:39.761Z,997.98
2018-03-09T08:35:54.628Z,997.94
2018-03-09T08:37:09.544Z,997.9
2018-03-09T08:38:24.772Z,997.89
2018-03-09T08:39:39.440Z,997.81
2018-03-09T08:40:54.464Z,997.83
2018-03-09T08:42:08.891Z,997.84
2018-03-09T08:43:24.335Z,997.92
2018-03-09T08:44:39.865Z,997.92
2018-03-09T08:45:55.363Z,997.97
2018-03-09T08:47:10.366Z,998
2018-03-09T08:48:25.749Z,998.04
2018-03-09T08:49:40.124Z,998.04
2018-03-09T08:50:53.896Z,998
2018-03-09T08:52:09.435Z,998.02
2018-03-09T08:53:24.350Z,998.06
2018-03-09T08:54:40.007Z,998.01
2018-03-09T08:55:54.509Z,998.03
2018-03-09T08:57:08.402Z,997.99
2018-03-09T08:58:23.805Z,997.98
2018-03-09T08:59:39.248Z,997.99
2018-03-09T09:00:54.553Z,997.97
2018-03-09T09:02:09.635Z,997.98
2018-03-09T09:03:24.843Z,998.06
2018-03-09T09:04:40.176Z,998.06
2018-03-09T09:05:54.945Z,998.06
2018-03-09T09:07:10.200Z,998.04
2018-03-09T09:08:24.941Z,998.07
2018-03-09T09:09:39.573Z,998.14
2018-03-09T09:10:55.263Z,998.1
2018-03-09T09:12:10.490Z,998.13
2018-03-09T09:13:25.478Z,998.12
2018-03-09T09:14:40.452Z,998.15
2018-03-09T09:15:55.411Z,998.13
2018-03-09T09:17:10.358Z,998.15
2018-03-09T09:18:37.102Z,998.13
2018-03-09T09:19:51.437Z,998.17
2018-03-09T09:21:05.862Z,998.15
2018-03-09T09:22:20.805Z,998.13
2018-03-09T09:23:35.783Z,998.13
2018-03-09T09:24:49.927Z,998.12
2018-03-09T09:26:04.862Z,998.14
2018-03-09T09:27:20.186Z,998.13
2018-03-09T09:28:35.399Z,998.14
2018-03-09T09:29:49.463Z,998.1
2018-03-09T09:31:04.172Z,998.14
2018-03-09T09:32:19.409Z,998.12
2018-03-09T09:33:33.915Z,998.08
2018-03-09T09:34:49.125Z,998.11
2018-03-09T09:36:04.110Z,998.13
2018-03-09T09:37:18.486Z,998.15
2018-03-09T09:38:33.318Z,998.17
2018-03-09T09:39:48.616Z,998.17
2018-03-09T09:41:03.621Z,998.14
2018-03-09T09:42:18.598Z,998.14
2018-03-09T09:43:34.567Z,998.07
2018-03-09T09:44:49.173Z,998.17
2018-03-09T09:46:03.992Z,998.16
2018-03-09T09:47:18.958Z,998.18
2018-03-09T09:48:34.473Z,998.17
2018-03-09T09:49:49.508Z,998.16
2018-03-09T09:51:04.949Z,998.18
2018-03-09T09:52:19.324Z,998.09
2018-03-09T09:53:34.341Z,998.12
2018-03-09T09:54:49.041Z,998.14
2018-03-09T09:56:04.719Z,998.14
2018-03-09T09:57:19.774Z,998.07
2018-03-09T09:58:34.860Z,998.14
2018-03-09T09:59:49.792Z,998.12
2018-03-09T10:01:04.246Z,998.15
2018-03-09T10:02:19.541Z,998.13
2018-03-09T10:03:35.186Z,998.14
2018-03-09T10:04:50.130Z,998.13
2018-03-09T10:06:05.387Z,998.12
2018-03-09T10:07:20.070Z,998.09
2018-03-09T10:08:35.091Z,998.11
2018-03-09T10:09:50.096Z,998.08
2018-03-09T10:11:05.179Z,998.11
2018-03-09T10:12:19.885Z,998.12
2018-03-09T10:13:35.161Z,998.17
2018-03-09T10:14:50.062Z,998.13
2018-03-09T10:16:05.743Z,998.18
2018-03-09T10:17:20.465Z,998.11
2018-03-09T10:18:35.303Z,998.09
2018-03-09T10:19:50.680Z,998.12
2018-03-09T10:21:06.048Z,998.1
2018-03-09T10:22:20.950Z,998.12
2018-03-09T10:23:46.129Z,998.08
2018-03-09T10:25:01.373Z,998.11
2018-03-09T10:26:16.513Z,998.09
2018-03-09T10:27:30.902Z,998.08
2018-03-09T10:28:45.378Z,998.08
2018-03-09T10:30:00.211Z,998.1
2018-03-09T10:31:15.402Z,998.11
2018-03-09T10:32:30.702Z,998.05
2018-03-09T10:33:45.793Z,998.08
2018-03-09T10:35:01.760Z,998.13
2018-03-09T10:36:17.527Z,998.1
2018-03-09T10:37:32.269Z,998.09
2018-03-09T10:38:46.811Z,998.01
2018-03-09T10:40:01.501Z,998.01
2018-03-09T10:41:16.452Z,998.04
2018-03-09T10:42:31.681Z,997.98
2018-03-09T10:43:46.764Z,997.98
2018-03-09T10:45:01.481Z,998.03
2018-03-09T10:46:16.988Z,998.02
2018-03-09T10:47:32.172Z,998.06
2018-03-09T10:48:47.110Z,998.01
2018-03-09T10:50:01.478Z,998.11
2018-03-09T10:51:16.606Z,998.07
2018-03-09T10:52:31.371Z,998.09
2018-03-09T10:53:45.272Z,998.08
2018-03-09T10:55:00.938Z,998.07
2018-03-09T10:56:16.086Z,998.05
2018-03-09T10:57:30.225Z,998.06
2018-03-09T10:58:44.953Z,998.07
2018-03-09T10:59:59.970Z,998.05
2018-03-09T11:01:15.620Z,998.06
2018-03-09T11:02:30.304Z,998.09
2018-03-09T11:03:45.295Z,998.07
2018-03-09T11:05:00.041Z,997.99
2018-03-09T11:06:15.600Z,998
2018-03-09T11:07:30.315Z,998
2018-03-09T11:08:44.980Z,998.05
2018-03-09T11:10:00.444Z,998.01
2018-03-09T11:11:15.104Z,998.1
2018-03-09T11:12:29.746Z,998.07
2018-03-09T11:13:44.718Z,998.03
2018-03-09T11:14:59.005Z,997.99
2018-03-09T11:16:13.972Z,997.98
2018-03-09T11:17:29.436Z,997.96
2018-03-09T11:18:43.846Z,998
2018-03-09T11:19:58.646Z,997.97
2018-03-09T11:21:13.029Z,997.93
2018-03-09T11:22:27.180Z,997.91
2018-03-09T11:23:42.155Z,997.89
2018-03-09T11:24:56.925Z,997.88
2018-03-09T11:26:12.076Z,997.87
2018-03-09T11:27:27.460Z,997.89
2018-03-09T11:28:52.955Z,997.9
2018-03-09T11:30:07.961Z,997.89
2018-03-09T11:31:22.999Z,997.87
2018-03-09T11:32:38.025Z,997.91
2018-03-09T11:33:52.412Z,997.84
2018-03-09T11:35:07.530Z,997.89
2018-03-09T11:36:22.800Z,997.87
2018-03-09T11:37:37.248Z,997.83
2018-03-09T11:38:51.896Z,997.86
2018-03-09T11:40:06.706Z,997.79
2018-03-09T11:41:22.008Z,997.79
2018-03-09T11:42:37.220Z,997.71
2018-03-09T11:43:52.207Z,997.73
2018-03-09T11:45:06.292Z,997.72
2018-03-09T11:46:21.270Z,997.69
2018-03-09T11:47:35.550Z,997.76
2018-03-09T11:48:51.258Z,997.71
2018-03-09T11:50:06.251Z,997.68
2018-03-09T11:51:21.883Z,997.65
2018-03-09T11:52:36.937Z,997.67
2018-03-09T11:53:52.012Z,997.7
2018-03-09T11:55:07.338Z,997.68
2018-03-09T11:56:22.356Z,997.64
2018-03-09T11:57:36.859Z,997.65
2018-03-09T11:58:51.910Z,997.63
2018-03-09T12:00:06.324Z,997.64
2018-03-09T12:01:22.600Z,997.6
2018-03-09T12:02:38.230Z,997.58
2018-03-09T12:03:53.385Z,997.57
2018-03-09T12:05:08.589Z,997.56
2018-03-09T12:06:23.500Z,997.53
2018-03-09T12:07:38.867Z,997.58
2018-03-09T12:08:54.250Z,997.55
2018-03-09T12:10:09.353Z,997.57
2018-03-09T12:11:24.212Z,997.52
2018-03-09T12:12:39.619Z,997.49
2018-03-09T12:13:54.745Z,997.49
2018-03-09T12:15:24.754Z,997.54
2018-03-09T12:16:39.419Z,997.51
2018-03-09T12:17:55.022Z,997.51
2018-03-09T12:19:11.138Z,997.46
2018-03-09T12:20:27.242Z,997.44
2018-03-09T12:21:41.818Z,997.43
2018-03-09T12:22:57.116Z,997.39
2018-03-09T12:25:56.922Z,997.4
2018-03-09T12:27:12.866Z,997.36
2018-03-09T12:28:28.058Z,997.42
2018-03-09T12:29:43.083Z,997.31
2018-03-09T12:30:57.827Z,997.34
2018-03-09T12:32:13.014Z,997.33
2018-03-09T12:33:28.191Z,997.31
2018-03-09T12:34:43.904Z,997.32
2018-03-09T12:35:58.682Z,997.32
2018-03-09T12:37:13.696Z,997.31
2018-03-09T12:38:29.528Z,997.33
2018-03-09T12:39:45.192Z,997.34
2018-03-09T12:41:00.733Z,997.3
2018-03-09T12:42:16.345Z,997.29
2018-03-09T12:43:31.542Z,997.25
2018-03-09T12:44:47.440Z,997.27
2018-03-09T12:46:03.511Z,997.25
2018-03-09T12:47:19.850Z,997.22
2018-03-09T12:48:35.531Z,997.25
2018-03-09T12:49:51.066Z,997.21
2018-03-09T12:51:06.432Z,997.21
2018-03-09T12:52:21.963Z,997.19
2018-03-09T12:53:37.232Z,997.27
2018-03-09T12:54:52.222Z,997.28
2018-03-09T12:56:07.472Z,997.24
2018-03-09T12:57:22.765Z,997.26
2018-03-09T12:58:37.405Z,997.2
2018-03-09T12:59:52.704Z,997.17
2018-03-09T13:01:08.395Z,997.21
2018-03-09T13:02:23.795Z,997.22
2018-03-09T13:03:39.368Z,997.22
2018-03-09T13:04:54.566Z,997.22
2018-03-09T13:06:09.771Z,997.24
2018-03-09T13:07:24.625Z,997.24
2018-03-09T13:08:39.953Z,997.16
2018-03-09T13:09:55.133Z,997.2
2018-03-09T13:11:11.167Z,997.23
2018-03-09T13:12:26.053Z,997.21
2018-03-09T13:13:41.225Z,997.19
2018-03-09T13:14:56.446Z,997.21
2018-03-09T13:16:11.593Z,997.2
2018-03-09T13:17:27.521Z,997.22
2018-03-09T13:18:42.739Z,997.15
2018-03-09T13:19:57.362Z,997.18
2018-03-09T13:21:12.113Z,997.21
2018-03-09T13:22:27.196Z,997.2
2018-03-09T13:23:42.718Z,997.15
2018-03-09T13:24:59.095Z,997.16
2018-03-09T13:26:13.862Z,997.14
2018-03-09T13:27:29.380Z,997.2
2018-03-09T13:28:44.193Z,997.16
2018-03-09T13:29:59.254Z,997.16
2018-03-09T13:31:15.118Z,997.15
2018-03-09T13:32:30.182Z,997.19
2018-03-09T13:33:45.439Z,997.12
2018-03-09T13:35:00.329Z,997.07
2018-03-09T13:36:15.384Z,997.11
2018-03-09T13:37:30.506Z,997.08
2018-03-09T13:38:45.807Z,997.09
2018-03-09T13:40:20.917Z,997.06
2018-03-09T13:41:36.609Z,997.05
2018-03-09T13:42:51.351Z,997.07
2018-03-09T13:44:05.488Z,997.11
2018-03-09T13:45:20.472Z,997.1
2018-03-09T13:46:35.948Z,997.08
2018-03-09T13:47:50.886Z,997.05
2018-03-09T13:49:05.897Z,997.04
2018-03-09T13:50:20.748Z,997.05
2018-03-09T13:51:35.767Z,997.01
2018-03-09T13:52:50.807Z,997.05
2018-03-09T13:54:04.978Z,997.03
2018-03-09T13:55:19.269Z,997.02
2018-03-09T13:56:34.241Z,997.01
2018-03-09T13:57:48.744Z,996.96
2018-03-09T13:59:03.465Z,997.01
2018-03-09T14:00:17.606Z,997.01
2018-03-09T14:01:32.446Z,997.03
2018-03-09T14:02:47.392Z,997.01
2018-03-09T14:04:03.069Z,997.04
2018-03-09T14:05:18.464Z,997
2018-03-09T14:06:33.515Z,996.97
2018-03-09T14:07:48.570Z,996.99
2018-03-09T14:09:03.917Z,996.97
2018-03-09T14:10:18.714Z,996.95
2018-03-09T14:11:33.608Z,996.93
2018-03-09T14:12:48.599Z,996.94
2018-03-09T14:14:03.754Z,996.89
2018-03-09T14:15:18.161Z,996.92
2018-03-09T14:16:33.418Z,996.94
2018-03-09T14:17:48.401Z,996.93
2018-03-09T14:19:03.137Z,996.91
2018-03-09T14:20:17.965Z,996.95
2018-03-09T14:21:33.408Z,996.88
2018-03-09T14:22:48.100Z,996.85
2018-03-09T14:24:03.112Z,996.82
2018-03-09T14:25:18.113Z,996.82
2018-03-09T14:26:32.657Z,996.79
2018-03-09T14:27:46.873Z,996.79
2018-03-09T14:29:01.494Z,996.79
2018-03-09T14:30:17.100Z,996.78
2018-03-09T14:31:32.307Z,996.78
2018-03-09T14:32:47.514Z,996.73
2018-03-09T14:34:02.591Z,996.75
2018-03-09T14:35:17.405Z,996.74
2018-03-09T14:36:33.371Z,996.7
2018-03-09T14:37:48.887Z,996.71
2018-03-09T14:39:04.133Z,996.7
2018-03-09T14:40:19.091Z,996.69
2018-03-09T14:41:48.967Z,996.69
2018-03-09T14:43:05.178Z,996.73
2018-03-09T14:44:20.007Z,996.68
2018-03-09T14:45:35.621Z,996.67
2018-03-09T14:46:50.863Z,996.65
2018-03-09T14:48:05.630Z,996.64
2018-03-09T14:49:20.589Z,996.64
2018-03-09T14:50:36.103Z,996.64
2018-03-09T14:51:52.046Z,996.65
2018-03-09T14:53:06.793Z,996.65
2018-03-09T14:54:22.340Z,996.62
2018-03-09T14:55:37.934Z,996.56
2018-03-09T14:56:53.219Z,996.53
2018-03-09T14:58:08.656Z,996.54
2018-03-09T14:59:23.950Z,996.52
2018-03-09T15:00:38.269Z,996.53
2018-03-09T15:01:53.245Z,996.58
2018-03-09T15:03:07.782Z,996.54
2018-03-09T15:04:22.876Z,996.52
2018-03-09T15:05:37.590Z,996.56
2018-03-09T15:06:53.496Z,996.51
2018-03-09T15:08:08.768Z,996.51
2018-03-09T15:09:23.482Z,996.57
2018-03-09T15:10:38.531Z,996.56
2018-03-09T15:11:53.122Z,996.51
2018-03-09T15:13:08.463Z,996.46
2018-03-09T15:14:23.802Z,996.43
2018-03-09T15:15:37.649Z,996.4
2018-03-09T15:16:52.407Z,996.46
2018-03-09T15:18:17.557Z,996.44
2018-03-09T15:19:32.587Z,996.38
2018-03-09T15:20:47.771Z,996.4
2018-03-09T15:22:02.620Z,996.43
2018-03-09T15:23:17.925Z,996.42
2018-03-09T15:24:33.211Z,996.47
2018-03-09T15:25:47.412Z,996.49
2018-03-09T15:27:03.354Z,996.45
2018-03-09T15:28:19.369Z,996.45
2018-03-09T15:29:33.907Z,996.43
2018-03-09T15:30:49.792Z,996.46
2018-03-09T15:32:04.994Z,996.48
2018-03-09T15:33:20.501Z,996.42
2018-03-09T15:34:35.548Z,996.44
2018-03-09T15:35:50.802Z,996.47
2018-03-09T15:37:06.649Z,996.47
2018-03-09T15:38:22.020Z,996.5
2018-03-09T15:39:36.290Z,996.5
2018-03-09T15:40:51.881Z,996.44
2018-03-09T15:42:07.272Z,996.45
2018-03-09T15:43:22.316Z,996.48
2018-03-09T15:44:36.572Z,996.45